Airfield :
LOGIN :

Register | Disclaimer

   EN    FR    IT 

 










Legend :    VFR   Marginal VFR   IFR   Intensive IFR   Very Intensive IFR
Visi :
Ceiling :
>= 8 km
>= 3000ft
5 to 8 km
1000 to 3000 ft
1500m to 5 km
500 to 1000 ft
800 to 1500m
200 to 500 ft
< 800m
< 200 ft
Symbols :   Thunderstorms  Fog  Heavy snow  Heavy precipitations  Wind > 20 kt
SIGMETs :     Misc.  Thunderstorms  Icing  Turbulence  Mountain Waves  Volcanic Ashes







- Airport Elevation : 230 ft


ETHB - Buckeburg Army

CURRENT METAR :
  • 250820Z 29008KT 9000 -SHRA BKN011CB 04/03 Q1015 RESHRA GRN WHT TEMPO GRN

EXPIRED METARs :
  • 250807Z 28008KT 4000 SHRA BKN012CB 05/03 Q1015 GRN WHT TEMPO GRN
  • 250720Z 27010KT 9999 BKN019 SCT030 05/02 Q1015 WHT WHT TEMPO GRN
  • 250629Z 30007KT 9999 SCT014TCU SCT022 04/02 Q1015 BLU+BLU+ TEMPO GRN
  • 250607Z 28013KT 9999 VCSH BKN013TCU 04/02 Q1016 GRN WHT TEMPO GRN
  • 250539Z 28013KT 9999 VCSH FEW015TCU BKN018 04/02 Q1016 WHT WHT TEMPO GRN

TAF TAF ETHB
Valid from the 25 at 09:00 until the 25 at 18:00 UTC


250802Z 2509/2518 29012KT 9999 NSW SCT010 BKN020
TEMPO 2509/2516 30015G30KT 4000 SHRA BKN012CB
PROB30 2510/2515 31020G35KT 3000 TSGS BKN008CB
BECMG 2515/2517 30010KT 9999 NSW SCT030
No reported NOTAMs for that airfield.



MET'MAP, your aeronautical weather chart ! - Copyright ORBIFLY December 2007 - Disclaimer

ORBIFLY MET'MAP TEAM :

Programming & Development : Alexandra Zaïnal
Concept & Development : Baudouin d'Aumeries
Co-Development & Prog : Marc-Olivier Méhu
Technical & hardware support : Manuel Goepfert

Contact : metmap@orbifly.com




SOURCES & CREDITS :

   NOAA